sensor_id;sensor_type;location;lat;lon;timestamp;P1;durP1;ratioP1;P2;durP2;ratioP2
37867;SDS011;24011;48.880;9.190;2022-12-07T00:01:11;0.50;;;0.50;;
37867;SDS011;24011;48.880;9.190;2022-12-07T00:04:19;0.75;;;0.75;;
37867;SDS011;24011;48.880;9.190;2022-12-07T00:10:59;0.60;;;0.60;;
37867;SDS011;24011;48.880;9.190;2022-12-07T00:14:09;0.60;;;0.60;;
37867;SDS011;24011;48.880;9.190;2022-12-07T00:17:16;0.75;;;0.75;;
37867;SDS011;24011;48.880;9.190;2022-12-07T00:20:17;0.75;;;0.75;;
37867;SDS011;24011;48.880;9.190;2022-12-07T00:23:23;0.80;;;0.80;;
37867;SDS011;24011;48.880;9.190;2022-12-07T00:26:29;0.52;;;0.52;;
37867;SDS011;24011;48.880;9.190;2022-12-07T00:29:32;0.65;;;0.65;;
37867;SDS011;24011;48.880;9.190;2022-12-07T00:32:50;0.80;;;0.80;;
37867;SDS011;24011;48.880;9.190;2022-12-07T00:35:58;0.60;;;0.60;;
37867;SDS011;24011;48.880;9.190;2022-12-07T00:39:08;0.68;;;0.68;;
37867;SDS011;24011;48.880;9.190;2022-12-07T00:45:10;0.60;;;0.60;;
37867;SDS011;24011;48.880;9.190;2022-12-07T00:48:08;0.60;;;0.60;;
37867;SDS011;24011;48.880;9.190;2022-12-07T00:51:05;0.68;;;0.57;;
37867;SDS011;24011;48.880;9.190;2022-12-07T00:54:22;0.50;;;0.50;;
37867;SDS011;24011;48.880;9.190;2022-12-07T00:57:28;0.70;;;0.70;;
37867;SDS011;24011;48.880;9.190;2022-12-07T01:00:46;0.60;;;0.60;;
37867;SDS011;24011;48.880;9.190;2022-12-07T01:03:56;0.80;;;0.80;;
37867;SDS011;24011;48.880;9.190;2022-12-07T01:07:10;0.50;;;0.50;;
37867;SDS011;24011;48.880;9.190;2022-12-07T01:10:26;0.60;;;0.60;;
37867;SDS011;24011;48.880;9.190;2022-12-07T01:13:50;0.60;;;0.60;;
37867;SDS011;24011;48.880;9.190;2022-12-07T01:16:59;0.73;;;0.73;;
37867;SDS011;24011;48.880;9.190;2022-12-07T01:20:11;0.60;;;0.60;;
37867;SDS011;24011;48.880;9.190;2022-12-07T01:23:14;0.77;;;0.77;;
37867;SDS011;24011;48.880;9.190;2022-12-07T01:26:29;0.70;;;0.70;;
37867;SDS011;24011;48.880;9.190;2022-12-07T01:29:38;0.50;;;0.50;;
37867;SDS011;24011;48.880;9.190;2022-12-07T01:32:40;0.50;;;0.50;;
37867;SDS011;24011;48.880;9.190;2022-12-07T01:35:38;0.68;;;0.68;;
37867;SDS011;24011;48.880;9.190;2022-12-07T01:38:41;0.73;;;0.73;;
37867;SDS011;24011;48.880;9.190;2022-12-07T01:41:41;0.63;;;0.63;;
37867;SDS011;24011;48.880;9.190;2022-12-07T01:48:24;0.60;;;0.60;;
37867;SDS011;24011;48.880;9.190;2022-12-07T01:51:33;0.50;;;0.50;;
37867;SDS011;24011;48.880;9.190;2022-12-07T01:54:33;0.70;;;0.70;;
37867;SDS011;24011;48.880;9.190;2022-12-07T01:57:39;0.60;;;0.60;;
37867;SDS011;24011;48.880;9.190;2022-12-07T02:00:33;0.70;;;0.70;;
37867;SDS011;24011;48.880;9.190;2022-12-07T02:03:39;0.52;;;0.52;;
37867;SDS011;24011;48.880;9.190;2022-12-07T02:06:35;0.70;;;0.70;;
37867;SDS011;24011;48.880;9.190;2022-12-07T02:09:41;0.68;;;0.68;;
37867;SDS011;24011;48.880;9.190;2022-12-07T02:12:39;0.60;;;0.60;;
37867;SDS011;24011;48.880;9.190;2022-12-07T02:15:59;0.57;;;0.57;;
37867;SDS011;24011;48.880;9.190;2022-12-07T02:33:28;0.60;;;0.60;;
37867;SDS011;24011;48.880;9.190;2022-12-07T02:36:48;0.63;;;0.63;;
37867;SDS011;24011;48.880;9.190;2022-12-07T02:39:59;0.70;;;0.70;;
37867;SDS011;24011;48.880;9.190;2022-12-07T02:43:16;0.68;;;0.68;;
37867;SDS011;24011;48.880;9.190;2022-12-07T02:46:47;0.50;;;0.50;;
37867;SDS011;24011;48.880;9.190;2022-12-07T02:50:10;0.65;;;0.65;;
37867;SDS011;24011;48.880;9.190;2022-12-07T02:56:24;0.73;;;0.73;;
37867;SDS011;24011;48.880;9.190;2022-12-07T02:59:32;0.68;;;0.68;;
37867;SDS011;24011;48.880;9.190;2022-12-07T03:03:06;0.50;;;0.50;;
37867;SDS011;24011;48.880;9.190;2022-12-07T03:06:22;0.65;;;0.65;;
37867;SDS011;24011;48.880;9.190;2022-12-07T03:09:41;0.60;;;0.60;;
37867;SDS011;24011;48.880;9.190;2022-12-07T03:12:54;0.57;;;0.57;;
37867;SDS011;24011;48.880;9.190;2022-12-07T03:16:00;0.52;;;0.52;;
37867;SDS011;24011;48.880;9.190;2022-12-07T03:19:13;0.40;;;0.40;;
37867;SDS011;24011;48.880;9.190;2022-12-07T03:22:22;0.70;;;0.70;;
37867;SDS011;24011;48.880;9.190;2022-12-07T03:25:34;0.80;;;0.80;;
37867;SDS011;24011;48.880;9.190;2022-12-07T03:28:47;0.60;;;0.60;;
37867;SDS011;24011;48.880;9.190;2022-12-07T03:31:53;0.70;;;0.70;;
37867;SDS011;24011;48.880;9.190;2022-12-07T03:35:18;0.60;;;0.60;;
37867;SDS011;24011;48.880;9.190;2022-12-07T03:38:17;0.70;;;0.70;;
37867;SDS011;24011;48.880;9.190;2022-12-07T03:41:24;0.60;;;0.60;;
37867;SDS011;24011;48.880;9.190;2022-12-07T03:44:30;0.63;;;0.63;;
37867;SDS011;24011;48.880;9.190;2022-12-07T03:47:29;0.55;;;0.55;;
37867;SDS011;24011;48.880;9.190;2022-12-07T03:50:35;0.60;;;0.60;;
37867;SDS011;24011;48.880;9.190;2022-12-07T03:53:37;0.70;;;0.70;;
37867;SDS011;24011;48.880;9.190;2022-12-07T03:56:43;0.60;;;0.60;;
37867;SDS011;24011;48.880;9.190;2022-12-07T03:59:37;0.70;;;0.70;;
37867;SDS011;24011;48.880;9.190;2022-12-07T04:02:31;0.60;;;0.60;;
37867;SDS011;24011;48.880;9.190;2022-12-07T04:05:42;0.70;;;0.70;;
37867;SDS011;24011;48.880;9.190;2022-12-07T04:08:31;0.80;;;0.80;;
37867;SDS011;24011;48.880;9.190;2022-12-07T04:11:24;0.80;;;0.80;;
37867;SDS011;24011;48.880;9.190;2022-12-07T04:14:13;0.90;;;0.90;;
37867;SDS011;24011;48.880;9.190;2022-12-07T04:17:23;0.90;;;0.90;;
37867;SDS011;24011;48.880;9.190;2022-12-07T04:20:17;0.80;;;0.80;;
37867;SDS011;24011;48.880;9.190;2022-12-07T04:23:17;1.08;;;1.08;;
37867;SDS011;24011;48.880;9.190;2022-12-07T04:26:07;0.90;;;0.90;;
37867;SDS011;24011;48.880;9.190;2022-12-07T04:29:12;0.98;;;0.98;;
37867;SDS011;24011;48.880;9.190;2022-12-07T04:32:13;1.00;;;1.00;;
37867;SDS011;24011;48.880;9.190;2022-12-07T04:35:19;1.00;;;1.00;;
37867;SDS011;24011;48.880;9.190;2022-12-07T04:38:25;0.90;;;0.90;;
37867;SDS011;24011;48.880;9.190;2022-12-07T04:41:23;1.05;;;1.05;;
37867;SDS011;24011;48.880;9.190;2022-12-07T04:44:14;0.90;;;0.90;;
37867;SDS011;24011;48.880;9.190;2022-12-07T04:47:25;1.05;;;1.05;;
37867;SDS011;24011;48.880;9.190;2022-12-07T04:50:19;0.90;;;0.90;;
37867;SDS011;24011;48.880;9.190;2022-12-07T04:53:26;1.05;;;1.05;;
37867;SDS011;24011;48.880;9.190;2022-12-07T04:56:25;0.98;;;0.98;;
37867;SDS011;24011;48.880;9.190;2022-12-07T04:59:25;1.00;;;1.00;;
37867;SDS011;24011;48.880;9.190;2022-12-07T05:02:31;1.25;;;1.20;;
37867;SDS011;24011;48.880;9.190;2022-12-07T05:05:35;0.90;;;0.90;;
37867;SDS011;24011;48.880;9.190;2022-12-07T05:08:41;1.00;;;1.00;;
37867;SDS011;24011;48.880;9.190;2022-12-07T05:11:49;1.02;;;1.02;;
37867;SDS011;24011;48.880;9.190;2022-12-07T05:14:47;1.10;;;1.10;;
37867;SDS011;24011;48.880;9.190;2022-12-07T05:17:50;1.20;;;1.10;;
37867;SDS011;24011;48.880;9.190;2022-12-07T05:20:47;1.00;;;1.00;;
37867;SDS011;24011;48.880;9.190;2022-12-07T05:24:01;1.02;;;1.02;;
37867;SDS011;24011;48.880;9.190;2022-12-07T05:27:01;1.10;;;1.10;;
37867;SDS011;24011;48.880;9.190;2022-12-07T05:29:59;0.90;;;0.90;;
37867;SDS011;24011;48.880;9.190;2022-12-07T05:33:02;1.25;;;1.15;;
37867;SDS011;24011;48.880;9.190;2022-12-07T05:36:11;1.10;;;1.10;;
37867;SDS011;24011;48.880;9.190;2022-12-07T05:39:35;1.10;;;1.02;;
37867;SDS011;24011;48.880;9.190;2022-12-07T05:42:36;2.30;;;0.90;;
37867;SDS011;24011;48.880;9.190;2022-12-07T05:45:35;1.30;;;1.20;;
37867;SDS011;24011;48.880;9.190;2022-12-07T05:48:32;1.20;;;1.20;;
37867;SDS011;24011;48.880;9.190;2022-12-07T05:51:11;1.10;;;1.10;;
37867;SDS011;24011;48.880;9.190;2022-12-07T05:54:24;1.70;;;1.20;;
37867;SDS011;24011;48.880;9.190;2022-12-07T05:57:18;1.10;;;1.10;;
37867;SDS011;24011;48.880;9.190;2022-12-07T06:00:20;1.00;;;1.00;;
37867;SDS011;24011;48.880;9.190;2022-12-07T06:03:20;1.17;;;1.17;;
37867;SDS011;24011;48.880;9.190;2022-12-07T06:06:26;1.00;;;1.00;;
37867;SDS011;24011;48.880;9.190;2022-12-07T06:14:08;1.25;;;1.15;;
37867;SDS011;24011;48.880;9.190;2022-12-07T06:17:32;1.30;;;1.20;;
37867;SDS011;24011;48.880;9.190;2022-12-07T06:21:50;1.23;;;1.13;;
37867;SDS011;24011;48.880;9.190;2022-12-07T06:29:17;1.98;;;1.08;;
37867;SDS011;24011;48.880;9.190;2022-12-07T06:32:38;1.00;;;1.00;;
37867;SDS011;24011;48.880;9.190;2022-12-07T06:36:02;1.23;;;1.17;;
37867;SDS011;24011;48.880;9.190;2022-12-07T06:39:08;1.00;;;1.00;;
37867;SDS011;24011;48.880;9.190;2022-12-07T06:42:27;1.90;;;1.00;;
37867;SDS011;24011;48.880;9.190;2022-12-07T06:45:32;1.00;;;1.00;;
37867;SDS011;24011;48.880;9.190;2022-12-07T06:51:50;1.10;;;1.10;;
37867;SDS011;24011;48.880;9.190;2022-12-07T06:55:02;1.02;;;1.02;;
37867;SDS011;24011;48.880;9.190;2022-12-07T06:57:56;1.00;;;1.00;;
37867;SDS011;24011;48.880;9.190;2022-12-07T07:01:32;1.00;;;1.00;;
37867;SDS011;24011;48.880;9.190;2022-12-07T07:04:10;1.00;;;1.00;;
37867;SDS011;24011;48.880;9.190;2022-12-07T07:06:50;0.93;;;0.93;;
37867;SDS011;24011;48.880;9.190;2022-12-07T07:09:38;1.02;;;1.00;;
37867;SDS011;24011;48.880;9.190;2022-12-07T07:12:26;1.02;;;1.00;;
37867;SDS011;24011;48.880;9.190;2022-12-07T12:07:06;1.80;;;0.70;;
37867;SDS011;24011;48.880;9.190;2022-12-07T12:10:26;0.88;;;0.85;;
37867;SDS011;24011;48.880;9.190;2022-12-07T12:13:36;0.60;;;0.60;;
37867;SDS011;24011;48.880;9.190;2022-12-07T12:17:19;0.70;;;0.70;;
37867;SDS011;24011;48.880;9.190;2022-12-07T12:20:39;0.73;;;0.73;;
37867;SDS011;24011;48.880;9.190;2022-12-07T12:40:58;0.80;;;0.80;;
37867;SDS011;24011;48.880;9.190;2022-12-07T12:44:01;0.80;;;0.80;;
37867;SDS011;24011;48.880;9.190;2022-12-07T13:03:50;0.70;;;0.70;;
37867;SDS011;24011;48.880;9.190;2022-12-07T13:06:35;0.88;;;0.88;;
37867;SDS011;24011;48.880;9.190;2022-12-07T13:09:26;1.00;;;1.00;;
37867;SDS011;24011;48.880;9.190;2022-12-07T13:12:20;0.90;;;0.90;;
37867;SDS011;24011;48.880;9.190;2022-12-07T13:15:22;0.80;;;0.80;;
37867;SDS011;24011;48.880;9.190;2022-12-07T13:18:25;0.77;;;0.77;;
37867;SDS011;24011;48.880;9.190;2022-12-07T13:24:55;0.98;;;0.88;;
37867;SDS011;24011;48.880;9.190;2022-12-07T13:27:55;2.85;;;0.90;;
37867;SDS011;24011;48.880;9.190;2022-12-07T13:30:43;0.85;;;0.85;;
37867;SDS011;24011;48.880;9.190;2022-12-07T13:33:34;0.80;;;0.80;;
37867;SDS011;24011;48.880;9.190;2022-12-07T13:36:17;1.50;;;1.10;;
37867;SDS011;24011;48.880;9.190;2022-12-07T13:39:25;0.88;;;0.88;;
37867;SDS011;24011;48.880;9.190;2022-12-07T13:42:09;1.05;;;1.02;;
37867;SDS011;24011;48.880;9.190;2022-12-07T13:44:57;1.27;;;1.17;;
37867;SDS011;24011;48.880;9.190;2022-12-07T13:48:30;1.00;;;1.00;;
37867;SDS011;24011;48.880;9.190;2022-12-07T13:51:33;1.10;;;1.10;;
37867;SDS011;24011;48.880;9.190;2022-12-07T13:54:26;1.10;;;1.10;;
37867;SDS011;24011;48.880;9.190;2022-12-07T13:57:19;1.20;;;1.10;;
37867;SDS011;24011;48.880;9.190;2022-12-07T14:00:00;0.98;;;0.98;;
37867;SDS011;24011;48.880;9.190;2022-12-07T14:02:53;1.00;;;1.00;;
37867;SDS011;24011;48.880;9.190;2022-12-07T14:06:03;1.45;;;1.10;;
37867;SDS011;24011;48.880;9.190;2022-12-07T14:09:15;1.13;;;1.00;;
37867;SDS011;24011;48.880;9.190;2022-12-07T14:15:02;1.55;;;1.17;;
37867;SDS011;24011;48.880;9.190;2022-12-07T14:17:49;1.30;;;1.20;;
37867;SDS011;24011;48.880;9.190;2022-12-07T14:21:01;1.20;;;1.10;;
37867;SDS011;24011;48.880;9.190;2022-12-07T14:24:21;1.40;;;1.30;;
37867;SDS011;24011;48.880;9.190;2022-12-07T14:27:32;1.20;;;1.20;;
37867;SDS011;24011;48.880;9.190;2022-12-07T14:30:40;1.20;;;1.10;;
37867;SDS011;24011;48.880;9.190;2022-12-07T14:33:30;1.30;;;1.20;;
37867;SDS011;24011;48.880;9.190;2022-12-07T14:36:13;1.05;;;1.05;;
37867;SDS011;24011;48.880;9.190;2022-12-07T14:39:04;1.20;;;1.20;;
37867;SDS011;24011;48.880;9.190;2022-12-07T14:41:54;1.17;;;1.10;;
37867;SDS011;24011;48.880;9.190;2022-12-07T14:44:50;1.10;;;1.10;;
37867;SDS011;24011;48.880;9.190;2022-12-07T14:47:35;0.98;;;0.98;;
37867;SDS011;24011;48.880;9.190;2022-12-07T14:50:34;1.05;;;1.05;;
37867;SDS011;24011;48.880;9.190;2022-12-07T14:53:56;1.52;;;1.42;;
37867;SDS011;24011;48.880;9.190;2022-12-07T14:57:02;0.98;;;0.98;;
37867;SDS011;24011;48.880;9.190;2022-12-07T15:00:08;1.10;;;1.10;;
37867;SDS011;24011;48.880;9.190;2022-12-07T15:03:05;1.35;;;1.25;;
37867;SDS011;24011;48.880;9.190;2022-12-07T15:05:50;1.30;;;1.20;;
37867;SDS011;24011;48.880;9.190;2022-12-07T15:08:46;1.10;;;1.10;;
37867;SDS011;24011;48.880;9.190;2022-12-07T15:11:24;1.30;;;1.20;;
37867;SDS011;24011;48.880;9.190;2022-12-07T15:13:58;1.10;;;1.10;;
37867;SDS011;24011;48.880;9.190;2022-12-07T15:16:47;1.27;;;1.20;;
37867;SDS011;24011;48.880;9.190;2022-12-07T15:19:40;1.20;;;1.20;;
37867;SDS011;24011;48.880;9.190;2022-12-07T15:22:14;0.98;;;0.98;;
37867;SDS011;24011;48.880;9.190;2022-12-07T15:24:51;1.63;;;1.20;;
37867;SDS011;24011;48.880;9.190;2022-12-07T15:27:27;1.10;;;1.10;;
37867;SDS011;24011;48.880;9.190;2022-12-07T15:30:06;1.17;;;1.17;;
37867;SDS011;24011;48.880;9.190;2022-12-07T15:32:44;1.30;;;1.20;;
37867;SDS011;24011;48.880;9.190;2022-12-07T15:35:29;1.00;;;1.00;;
37867;SDS011;24011;48.880;9.190;2022-12-07T15:38:12;1.15;;;1.15;;
37867;SDS011;24011;48.880;9.190;2022-12-07T15:41:08;1.30;;;1.20;;
37867;SDS011;24011;48.880;9.190;2022-12-07T15:43:50;1.27;;;1.23;;
37867;SDS011;24011;48.880;9.190;2022-12-07T15:47:21;1.40;;;1.30;;
37867;SDS011;24011;48.880;9.190;2022-12-07T15:54:20;1.45;;;1.35;;
37867;SDS011;24011;48.880;9.190;2022-12-07T16:00:44;1.60;;;1.50;;
37867;SDS011;24011;48.880;9.190;2022-12-07T16:03:28;1.40;;;1.30;;
37867;SDS011;24011;48.880;9.190;2022-12-07T16:10:38;1.52;;;1.42;;
37867;SDS011;24011;48.880;9.190;2022-12-07T16:15:14;1.50;;;1.40;;
37867;SDS011;24011;48.880;9.190;2022-12-07T16:18:38;1.55;;;1.45;;
37867;SDS011;24011;48.880;9.190;2022-12-07T16:22:04;1.50;;;1.40;;
37867;SDS011;24011;48.880;9.190;2022-12-07T16:29:26;1.67;;;1.58;;
37867;SDS011;24011;48.880;9.190;2022-12-07T16:32:35;1.67;;;1.58;;
37867;SDS011;24011;48.880;9.190;2022-12-07T16:36:17;1.58;;;1.48;;
37867;SDS011;24011;48.880;9.190;2022-12-07T16:47:44;1.42;;;1.33;;
37867;SDS011;24011;48.880;9.190;2022-12-07T16:51:02;1.70;;;1.60;;
37867;SDS011;24011;48.880;9.190;2022-12-07T17:10:29;1.30;;;1.20;;
37867;SDS011;24011;48.880;9.190;2022-12-07T17:14:17;1.35;;;1.25;;
37867;SDS011;24011;48.880;9.190;2022-12-07T17:18:13;1.38;;;1.27;;
37867;SDS011;24011;48.880;9.190;2022-12-07T17:21:56;1.13;;;1.08;;
37867;SDS011;24011;48.880;9.190;2022-12-07T17:25:03;1.27;;;1.25;;
37867;SDS011;24011;48.880;9.190;2022-12-07T17:28:14;1.45;;;1.35;;
37867;SDS011;24011;48.880;9.190;2022-12-07T17:31:48;1.40;;;1.30;;
37867;SDS011;24011;48.880;9.190;2022-12-07T17:35:02;1.58;;;1.48;;
37867;SDS011;24011;48.880;9.190;2022-12-07T17:38:31;1.50;;;1.40;;
37867;SDS011;24011;48.880;9.190;2022-12-07T17:42:01;1.20;;;1.20;;
37867;SDS011;24011;48.880;9.190;2022-12-07T17:45:20;1.25;;;1.20;;
37867;SDS011;24011;48.880;9.190;2022-12-07T17:48:19;1.15;;;1.05;;
37867;SDS011;24011;48.880;9.190;2022-12-07T17:51:32;1.35;;;1.25;;
37867;SDS011;24011;48.880;9.190;2022-12-07T17:55:01;1.30;;;1.20;;
37867;SDS011;24011;48.880;9.190;2022-12-07T17:58:31;1.20;;;1.20;;
37867;SDS011;24011;48.880;9.190;2022-12-07T18:02:08;1.35;;;1.05;;
37867;SDS011;24011;48.880;9.190;2022-12-07T18:05:31;1.20;;;1.10;;
37867;SDS011;24011;48.880;9.190;2022-12-07T18:09:02;1.00;;;1.00;;
37867;SDS011;24011;48.880;9.190;2022-12-07T18:12:31;1.20;;;1.20;;
37867;SDS011;24011;48.880;9.190;2022-12-07T18:16:16;1.02;;;1.02;;
37867;SDS011;24011;48.880;9.190;2022-12-07T18:19:31;1.00;;;1.00;;
37867;SDS011;24011;48.880;9.190;2022-12-07T18:22:56;1.05;;;1.05;;
37867;SDS011;24011;48.880;9.190;2022-12-07T18:26:19;1.08;;;1.08;;
37867;SDS011;24011;48.880;9.190;2022-12-07T18:29:51;0.98;;;0.98;;
37867;SDS011;24011;48.880;9.190;2022-12-07T18:33:37;1.00;;;1.00;;
37867;SDS011;24011;48.880;9.190;2022-12-07T18:36:44;1.10;;;1.00;;
37867;SDS011;24011;48.880;9.190;2022-12-07T18:39:45;1.00;;;1.00;;
37867;SDS011;24011;48.880;9.190;2022-12-07T18:42:36;1.10;;;1.10;;
37867;SDS011;24011;48.880;9.190;2022-12-07T18:45:38;1.00;;;1.00;;
37867;SDS011;24011;48.880;9.190;2022-12-07T18:48:43;0.98;;;0.98;;
37867;SDS011;24011;48.880;9.190;2022-12-07T18:51:54;1.00;;;1.00;;
37867;SDS011;24011;48.880;9.190;2022-12-07T18:55:03;1.02;;;1.02;;
37867;SDS011;24011;48.880;9.190;2022-12-07T18:58:07;0.80;;;0.80;;
37867;SDS011;24011;48.880;9.190;2022-12-07T19:01:15;0.85;;;0.85;;
37867;SDS011;24011;48.880;9.190;2022-12-07T19:04:19;0.80;;;0.80;;
37867;SDS011;24011;48.880;9.190;2022-12-07T19:07:30;0.88;;;0.88;;
37867;SDS011;24011;48.880;9.190;2022-12-07T19:10:37;0.70;;;0.70;;
37867;SDS011;24011;48.880;9.190;2022-12-07T19:14:01;0.90;;;0.90;;
37867;SDS011;24011;48.880;9.190;2022-12-07T19:17:08;0.77;;;0.77;;
37867;SDS011;24011;48.880;9.190;2022-12-07T19:20:18;0.90;;;0.90;;
37867;SDS011;24011;48.880;9.190;2022-12-07T19:23:24;0.82;;;0.82;;
37867;SDS011;24011;48.880;9.190;2022-12-07T19:26:33;0.75;;;0.75;;
37867;SDS011;24011;48.880;9.190;2022-12-07T19:29:39;0.70;;;0.70;;
37867;SDS011;24011;48.880;9.190;2022-12-07T19:32:48;1.00;;;0.90;;
37867;SDS011;24011;48.880;9.190;2022-12-07T19:35:56;1.00;;;1.00;;
37867;SDS011;24011;48.880;9.190;2022-12-07T19:39:07;0.85;;;0.85;;
37867;SDS011;24011;48.880;9.190;2022-12-07T19:42:13;0.70;;;0.70;;
37867;SDS011;24011;48.880;9.190;2022-12-07T19:45:14;0.75;;;0.75;;
37867;SDS011;24011;48.880;9.190;2022-12-07T19:48:24;0.73;;;0.73;;
37867;SDS011;24011;48.880;9.190;2022-12-07T19:51:24;0.63;;;0.63;;
37867;SDS011;24011;48.880;9.190;2022-12-07T19:54:31;0.70;;;0.70;;
37867;SDS011;24011;48.880;9.190;2022-12-07T19:57:33;0.80;;;0.80;;
37867;SDS011;24011;48.880;9.190;2022-12-07T20:00:49;0.80;;;0.80;;
37867;SDS011;24011;48.880;9.190;2022-12-07T20:03:55;0.90;;;0.90;;
37867;SDS011;24011;48.880;9.190;2022-12-07T20:07:07;0.55;;;0.55;;
37867;SDS011;24011;48.880;9.190;2022-12-07T20:10:14;0.80;;;0.80;;
37867;SDS011;24011;48.880;9.190;2022-12-07T20:13:22;0.80;;;0.80;;
37867;SDS011;24011;48.880;9.190;2022-12-07T20:16:20;0.60;;;0.60;;
37867;SDS011;24011;48.880;9.190;2022-12-07T20:19:31;0.70;;;0.70;;
37867;SDS011;24011;48.880;9.190;2022-12-07T20:22:34;0.70;;;0.70;;
37867;SDS011;24011;48.880;9.190;2022-12-07T20:25:50;0.75;;;0.75;;
37867;SDS011;24011;48.880;9.190;2022-12-07T20:28:55;0.75;;;0.75;;
37867;SDS011;24011;48.880;9.190;2022-12-07T20:32:10;0.80;;;0.80;;
37867;SDS011;24011;48.880;9.190;2022-12-07T20:35:14;0.80;;;0.80;;
37867;SDS011;24011;48.880;9.190;2022-12-07T20:38:22;0.73;;;0.73;;
37867;SDS011;24011;48.880;9.190;2022-12-07T20:41:31;0.70;;;0.70;;
37867;SDS011;24011;48.880;9.190;2022-12-07T20:44:50;0.80;;;0.80;;
37867;SDS011;24011;48.880;9.190;2022-12-07T20:47:55;0.70;;;0.70;;
37867;SDS011;24011;48.880;9.190;2022-12-07T20:51:07;0.60;;;0.60;;
37867;SDS011;24011;48.880;9.190;2022-12-07T20:54:07;0.70;;;0.70;;
37867;SDS011;24011;48.880;9.190;2022-12-07T20:57:20;0.82;;;0.82;;
37867;SDS011;24011;48.880;9.190;2022-12-07T21:03:31;0.75;;;0.75;;
37867;SDS011;24011;48.880;9.190;2022-12-07T21:06:34;0.80;;;0.80;;
37867;SDS011;24011;48.880;9.190;2022-12-07T21:09:49;0.70;;;0.70;;
37867;SDS011;24011;48.880;9.190;2022-12-07T21:12:46;0.60;;;0.60;;
37867;SDS011;24011;48.880;9.190;2022-12-07T21:16:20;1.17;;;0.70;;
37867;SDS011;24011;48.880;9.190;2022-12-07T21:19:46;0.70;;;0.70;;
37867;SDS011;24011;48.880;9.190;2022-12-07T21:23:31;1.73;;;1.70;;
37867;SDS011;24011;48.880;9.190;2022-12-07T21:56:08;0.63;;;0.63;;
37867;SDS011;24011;48.880;9.190;2022-12-07T22:04:09;0.80;;;0.80;;
37867;SDS011;24011;48.880;9.190;2022-12-07T22:27:50;0.75;;;0.75;;
37867;SDS011;24011;48.880;9.190;2022-12-07T22:31:02;0.70;;;0.70;;
37867;SDS011;24011;48.880;9.190;2022-12-07T22:34:34;0.75;;;0.75;;
37867;SDS011;24011;48.880;9.190;2022-12-07T22:38:28;0.80;;;0.80;;
37867;SDS011;24011;48.880;9.190;2022-12-07T22:42:31;0.60;;;0.60;;
37867;SDS011;24011;48.880;9.190;2022-12-07T22:58:46;0.50;;;0.50;;
37867;SDS011;24011;48.880;9.190;2022-12-07T23:03:22;0.70;;;0.70;;
37867;SDS011;24011;48.880;9.190;2022-12-07T23:07:34;0.70;;;0.70;;
37867;SDS011;24011;48.880;9.190;2022-12-07T23:11:17;0.77;;;0.77;;
37867;SDS011;24011;48.880;9.190;2022-12-07T23:39:09;0.68;;;0.68;;
37867;SDS011;24011;48.880;9.190;2022-12-07T23:42:33;0.70;;;0.70;;
37867;SDS011;24011;48.880;9.190;2022-12-07T23:46:09;0.68;;;0.63;;
37867;SDS011;24011;48.880;9.190;2022-12-07T23:49:34;0.60;;;0.60;;
37867;SDS011;24011;48.880;9.190;2022-12-07T23:53:03;0.70;;;0.70;;
37867;SDS011;24011;48.880;9.190;2022-12-07T23:56:21;0.65;;;0.65;;
37867;SDS011;24011;48.880;9.190;2022-12-07T23:59:33;0.60;;;0.60;;
